createdAt,value
2022-08-16T00:01:11.826Z,79.30
2022-08-16T00:03:39.171Z,78.60
2022-08-16T00:06:08.004Z,78.60
2022-08-16T00:08:38.063Z,78.60
2022-08-16T00:11:08.100Z,79.10
2022-08-16T00:13:43.013Z,78.90
2022-08-16T00:17:01.099Z,78.90
2022-08-16T00:19:07.081Z,78.90
2022-08-16T00:21:34.895Z,79.20
2022-08-16T00:24:04.677Z,79.10
2022-08-16T00:26:36.292Z,79.30
2022-08-16T00:29:05.772Z,79.20
2022-08-16T00:31:58.600Z,79.20
2022-08-16T00:34:22.668Z,79.20
2022-08-16T00:37:09.835Z,79.40
2022-08-16T00:39:36.810Z,79.60
2022-08-16T00:42:10.304Z,79.80
2022-08-16T00:44:39.537Z,79.50
2022-08-16T00:47:12.147Z,79.50
2022-08-16T00:49:44.896Z,79.80
2022-08-16T00:52:29.700Z,79.70
2022-08-16T00:54:58.716Z,79.80
2022-08-16T00:57:58.369Z,79.90
2022-08-16T01:00:19.861Z,79.80
2022-08-16T01:02:48.725Z,80.00
2022-08-16T01:05:16.210Z,80.50
2022-08-16T01:07:51.606Z,80.10
2022-08-16T01:10:31.313Z,80.20
2022-08-16T01:13:15.193Z,80.00
2022-08-16T01:15:56.028Z,80.20
2022-08-16T01:18:39.935Z,80.40
2022-08-16T01:21:14.144Z,80.60
2022-08-16T01:24:52.467Z,80.20
2022-08-16T01:27:03.670Z,80.20
2022-08-16T01:29:59.912Z,80.30
2022-08-16T01:32:33.457Z,80.30
2022-08-16T01:35:04.556Z,80.40
2022-08-16T01:37:40.028Z,80.40
2022-08-16T01:40:10.779Z,80.70
2022-08-16T01:42:37.667Z,80.70
2022-08-16T01:45:09.753Z,80.80
2022-08-16T01:47:38.810Z,80.90
2022-08-16T01:50:43.518Z,81.60
2022-08-16T01:53:10.151Z,80.90
2022-08-16T01:55:56.858Z,81.00
2022-08-16T01:58:24.254Z,80.90
2022-08-16T02:00:51.076Z,81.10
2022-08-16T02:03:18.212Z,81.00
2022-08-16T02:05:52.524Z,81.20
2022-08-16T02:08:33.384Z,81.30
2022-08-16T02:11:05.879Z,81.50
2022-08-16T02:13:33.100Z,81.50
2022-08-16T02:16:01.011Z,81.60
2022-08-16T02:18:28.804Z,81.80
2022-08-16T02:20:59.669Z,81.80
2022-08-16T02:23:26.770Z,81.60
2022-08-16T02:25:56.739Z,81.70
2022-08-16T02:28:26.846Z,82.00
2022-08-16T02:30:56.711Z,82.10
2022-08-16T02:33:43.390Z,82.40
2022-08-16T02:36:47.249Z,82.60
2022-08-16T02:39:12.043Z,82.70
2022-08-16T02:41:44.600Z,83.00
2022-08-16T02:44:14.793Z,82.60
2022-08-16T02:46:50.297Z,82.60
2022-08-16T02:49:19.289Z,83.10
2022-08-16T02:51:47.920Z,82.90
2022-08-16T02:54:17.238Z,82.60
2022-08-16T02:56:47.811Z,82.70
2022-08-16T02:59:15.531Z,82.70
2022-08-16T03:01:43.726Z,83.00
2022-08-16T03:04:51.251Z,83.30
2022-08-16T03:07:27.640Z,83.40
2022-08-16T03:09:55.631Z,83.20
2022-08-16T03:12:30.457Z,83.00
2022-08-16T03:15:17.724Z,83.40
2022-08-16T03:17:53.278Z,82.90
2022-08-16T03:20:32.277Z,83.20
2022-08-16T03:23:01.717Z,83.60
2022-08-16T03:25:40.681Z,83.20
2022-08-16T03:28:10.394Z,83.40
2022-08-16T03:30:39.037Z,83.40
2022-08-16T03:33:09.576Z,83.50
2022-08-16T03:35:46.590Z,83.80
2022-08-16T03:38:33.955Z,83.70
2022-08-16T03:41:14.349Z,83.80
2022-08-16T03:43:52.460Z,83.20
2022-08-16T03:46:45.038Z,83.60
2022-08-16T03:49:13.177Z,83.80
2022-08-16T03:51:43.600Z,83.90
2022-08-16T03:54:17.433Z,83.10
2022-08-16T03:56:56.984Z,83.50
2022-08-16T03:59:24.852Z,83.40
2022-08-16T04:01:53.903Z,84.10
2022-08-16T04:04:32.998Z,83.60
2022-08-16T04:07:04.104Z,84.10
2022-08-16T04:09:35.267Z,83.80
2022-08-16T04:12:11.314Z,83.90
2022-08-16T04:14:52.507Z,84.40
2022-08-16T04:17:21.503Z,84.40
2022-08-16T04:19:52.352Z,84.30
2022-08-16T04:22:27.512Z,84.40
2022-08-16T04:24:59.122Z,84.50
2022-08-16T04:27:32.035Z,85.30
2022-08-16T04:30:02.941Z,84.50
2022-08-16T04:32:33.814Z,84.50
2022-08-16T04:35:08.382Z,84.80
2022-08-16T04:37:42.299Z,84.90
2022-08-16T04:40:35.490Z,85.10
2022-08-16T04:43:04.041Z,85.60
2022-08-16T04:45:36.071Z,85.20
2022-08-16T04:48:08.690Z,85.10
2022-08-16T04:50:45.439Z,85.20
2022-08-16T04:53:16.616Z,86.20
2022-08-16T04:55:47.895Z,85.60
2022-08-16T04:58:43.837Z,85.70
2022-08-16T05:01:13.420Z,86.10
2022-08-16T05:03:59.767Z,85.90
2022-08-16T05:06:45.348Z,85.80
2022-08-16T05:09:36.349Z,86.10
2022-08-16T05:12:06.487Z,86.10
2022-08-16T05:14:45.606Z,86.30
2022-08-16T05:17:17.975Z,86.70
2022-08-16T05:19:46.795Z,86.00
2022-08-16T05:22:28.539Z,86.50
2022-08-16T05:24:57.806Z,86.10
2022-08-16T05:27:25.054Z,86.80
2022-08-16T05:30:00.863Z,86.30
2022-08-16T05:32:36.418Z,87.10
2022-08-16T05:35:14.610Z,86.90
2022-08-16T05:37:59.996Z,86.50
2022-08-16T05:40:27.635Z,86.90
2022-08-16T05:42:56.023Z,87.20
2022-08-16T05:45:23.855Z,87.20
2022-08-16T05:48:00.142Z,87.50
2022-08-16T05:50:38.182Z,86.80
2022-08-16T05:53:08.727Z,87.50
2022-08-16T05:55:43.762Z,87.80
2022-08-16T05:58:31.453Z,87.80
2022-08-16T06:00:57.528Z,86.80
2022-08-16T06:03:26.047Z,86.70
2022-08-16T06:06:00.609Z,85.80
2022-08-16T06:08:31.748Z,86.10
2022-08-16T06:11:09.754Z,86.00
2022-08-16T06:13:37.863Z,87.00
2022-08-16T06:16:18.116Z,87.10
2022-08-16T06:18:48.002Z,86.90
2022-08-16T06:21:22.834Z,87.10
2022-08-16T06:23:54.611Z,86.60
2022-08-16T06:26:23.684Z,87.00
2022-08-16T06:29:01.973Z,87.20
2022-08-16T06:31:45.290Z,86.70
2022-08-16T06:34:56.228Z,87.60
2022-08-16T06:37:05.242Z,88.10
2022-08-16T06:39:49.806Z,86.20
2022-08-16T06:42:39.549Z,87.20
2022-08-16T06:45:50.390Z,87.90
2022-08-16T06:48:33.141Z,87.90
2022-08-16T06:51:04.511Z,88.00
2022-08-16T06:53:34.865Z,87.70
2022-08-16T06:56:05.958Z,88.50
2022-08-16T06:58:57.448Z,88.30
2022-08-16T07:01:44.961Z,87.20
2022-08-16T07:04:32.058Z,87.60
2022-08-16T07:07:06.248Z,88.60
2022-08-16T07:09:37.331Z,87.90
2022-08-16T07:12:05.692Z,87.40
2022-08-16T07:14:35.488Z,87.30
2022-08-16T07:17:08.173Z,86.90
2022-08-16T07:20:02.939Z,86.00
2022-08-16T07:22:37.425Z,86.60
2022-08-16T07:25:16.787Z,86.60
2022-08-16T07:27:45.315Z,86.30
2022-08-16T07:30:39.814Z,87.10
2022-08-16T07:33:07.390Z,87.20
2022-08-16T07:35:44.289Z,87.50
2022-08-16T07:38:19.785Z,86.70
2022-08-16T07:41:00.539Z,86.80
2022-08-16T07:43:29.889Z,87.30
2022-08-16T07:46:01.323Z,87.80
2022-08-16T07:48:30.911Z,87.40
2022-08-16T07:50:59.568Z,87.70
2022-08-16T07:53:30.101Z,87.60
2022-08-16T07:56:00.232Z,86.80
2022-08-16T07:58:36.279Z,86.30
2022-08-16T08:01:10.359Z,85.80
2022-08-16T08:03:48.194Z,85.90
2022-08-16T08:06:24.870Z,86.80
2022-08-16T08:08:57.540Z,85.50
2022-08-16T08:11:28.707Z,86.50
2022-08-16T08:14:03.236Z,85.30
2022-08-16T08:16:33.876Z,84.70
2022-08-16T08:19:04.041Z,84.80
2022-08-16T08:21:59.159Z,85.90
2022-08-16T08:24:32.169Z,84.70
2022-08-16T08:27:02.227Z,84.60
2022-08-16T08:29:37.496Z,84.00
2022-08-16T08:32:49.097Z,83.80
2022-08-16T08:35:02.989Z,83.60
2022-08-16T08:37:41.729Z,83.30
2022-08-16T08:40:19.476Z,83.20
2022-08-16T08:42:57.974Z,83.30
2022-08-16T08:45:47.393Z,83.90
2022-08-16T08:48:33.863Z,82.50
2022-08-16T08:51:09.820Z,81.60
2022-08-16T08:53:57.930Z,81.20
2022-08-16T08:56:30.434Z,80.90
2022-08-16T08:59:13.540Z,80.70
2022-08-16T09:01:56.909Z,80.40
2022-08-16T09:04:28.495Z,80.50
2022-08-16T09:06:58.462Z,80.40
2022-08-16T09:09:33.667Z,80.30
2022-08-16T09:12:06.541Z,80.40
2022-08-16T09:14:49.701Z,80.50
2022-08-16T09:17:45.422Z,80.20
2022-08-16T09:20:13.510Z,79.10
2022-08-16T09:22:41.783Z,79.30
2022-08-16T09:25:13.043Z,78.60
2022-08-16T09:27:57.235Z,78.50
2022-08-16T09:30:33.814Z,78.40
2022-08-16T09:33:06.790Z,78.40
2022-08-16T09:35:37.493Z,78.80
2022-08-16T09:38:08.479Z,78.50
2022-08-16T09:40:42.649Z,78.40
2022-08-16T09:43:44.782Z,78.00
2022-08-16T09:46:44.923Z,77.90
2022-08-16T09:48:56.369Z,77.60
2022-08-16T09:51:30.861Z,77.90
2022-08-16T09:54:04.785Z,77.50
2022-08-16T09:56:35.442Z,76.40
2022-08-16T09:59:08.151Z,76.20
2022-08-16T10:01:43.482Z,76.00
2022-08-16T10:04:30.326Z,76.30
2022-08-16T10:07:01.723Z,75.80
2022-08-16T10:09:45.006Z,74.70
2022-08-16T10:12:35.052Z,75.20
2022-08-16T10:15:15.509Z,74.40
2022-08-16T10:17:43.685Z,74.40
2022-08-16T10:20:13.094Z,74.40
2022-08-16T10:22:45.569Z,74.10
2022-08-16T10:27:20.623Z,74.50
2022-08-16T10:28:27.649Z,75.30
2022-08-16T10:30:47.723Z,76.00
2022-08-16T10:33:23.540Z,75.50
2022-08-16T10:35:50.518Z,75.80
2022-08-16T10:38:27.273Z,76.40
2022-08-16T10:40:54.735Z,75.50
2022-08-16T10:43:22.004Z,76.80
2022-08-16T10:46:00.572Z,76.50
2022-08-16T10:48:29.438Z,76.50
2022-08-16T10:50:59.110Z,76.50
2022-08-16T10:53:33.148Z,76.10
2022-08-16T10:56:02.503Z,76.00
2022-08-16T10:58:34.505Z,75.90
2022-08-16T11:03:51.851Z,75.30
2022-08-16T11:06:26.902Z,74.80
2022-08-16T11:14:30.754Z,74.70
2022-08-16T11:17:10.528Z,74.50
2022-08-16T11:22:38.821Z,74.90
2022-08-16T11:26:03.792Z,74.60
2022-08-16T11:28:03.261Z,74.60
2022-08-16T11:30:38.547Z,74.00
2022-08-16T11:33:08.914Z,74.30
2022-08-16T11:36:22.581Z,75.00
2022-08-16T11:38:51.934Z,74.20
2022-08-16T11:41:13.074Z,74.40
2022-08-16T11:43:41.927Z,73.20
2022-08-16T11:46:44.955Z,73.40
2022-08-16T11:48:59.094Z,73.30
2022-08-16T11:51:25.934Z,73.80
2022-08-16T11:53:53.133Z,73.40
2022-08-16T11:56:37.646Z,72.40
2022-08-16T11:59:08.687Z,72.60
2022-08-16T12:01:55.380Z,71.40
2022-08-16T12:04:23.272Z,70.70
2022-08-16T12:06:53.810Z,71.10
2022-08-16T12:09:22.128Z,71.40
2022-08-16T12:11:52.792Z,71.10
2022-08-16T12:14:23.013Z,70.50
2022-08-16T12:16:55.457Z,70.50
2022-08-16T12:19:35.502Z,70.10
2022-08-16T12:22:05.578Z,70.80
2022-08-16T12:24:45.438Z,68.90
2022-08-16T12:27:14.854Z,69.80
2022-08-16T12:29:42.425Z,70.40
2022-08-16T12:32:26.785Z,70.40
2022-08-16T12:34:56.553Z,70.60
2022-08-16T12:37:24.773Z,70.60
2022-08-16T12:39:55.026Z,70.30
2022-08-16T12:42:25.153Z,70.00
2022-08-16T12:45:07.916Z,70.20
2022-08-16T12:48:10.025Z,70.20
2022-08-16T12:50:40.629Z,69.50
2022-08-16T12:53:07.905Z,69.00
2022-08-16T12:55:41.661Z,69.40
2022-08-16T12:58:14.110Z,69.30
2022-08-16T13:00:57.267Z,68.40
2022-08-16T13:03:25.626Z,68.70
2022-08-16T13:05:55.809Z,67.50
2022-08-16T13:08:27.473Z,67.80
2022-08-16T13:10:58.634Z,68.60
2022-08-16T13:13:26.555Z,68.80
2022-08-16T13:16:03.576Z,68.10
2022-08-16T13:18:35.524Z,67.70
2022-08-16T13:21:07.301Z,67.80
2022-08-16T13:23:36.042Z,67.80
2022-08-16T13:26:10.174Z,67.20
2022-08-16T13:28:37.327Z,66.50
2022-08-16T13:31:05.575Z,66.80
2022-08-16T13:33:37.157Z,64.50
2022-08-16T13:36:17.080Z,65.70
2022-08-16T13:38:53.131Z,64.60
2022-08-16T13:41:21.514Z,64.30
2022-08-16T13:43:57.431Z,65.00
2022-08-16T13:46:26.995Z,65.20
2022-08-16T13:48:53.881Z,65.20
2022-08-16T13:51:23.880Z,65.30
2022-08-16T13:53:58.355Z,63.60
2022-08-16T13:56:37.566Z,63.40
2022-08-16T13:59:19.862Z,63.60
2022-08-16T14:01:55.461Z,63.00
2022-08-16T14:04:31.409Z,63.30
2022-08-16T14:06:59.374Z,63.60
2022-08-16T14:09:28.764Z,63.60
2022-08-16T14:11:57.928Z,63.50
2022-08-16T14:14:29.032Z,64.30
2022-08-16T14:16:58.682Z,63.70
2022-08-16T14:19:27.747Z,64.20
2022-08-16T14:22:14.594Z,63.80
2022-08-16T14:24:45.270Z,63.80
2022-08-16T14:27:18.360Z,63.40
2022-08-16T14:29:49.449Z,62.80
2022-08-16T14:32:33.624Z,63.30
2022-08-16T14:35:11.412Z,62.70
2022-08-16T14:37:39.567Z,62.60
2022-08-16T14:40:12.877Z,63.00
2022-08-16T14:42:40.439Z,62.20
2022-08-16T14:45:13.515Z,62.00
2022-08-16T14:47:40.916Z,63.00
2022-08-16T14:50:16.302Z,63.10
2022-08-16T14:53:02.053Z,61.20
2022-08-16T14:55:32.124Z,60.80
2022-08-16T14:57:59.604Z,60.80
2022-08-16T15:00:33.896Z,62.10
2022-08-16T15:03:06.779Z,61.00
2022-08-16T15:05:37.311Z,60.10
2022-08-16T15:08:04.264Z,60.60
2022-08-16T15:10:32.287Z,60.50
2022-08-16T15:13:01.111Z,60.20
2022-08-16T15:15:29.672Z,60.40
2022-08-16T15:17:57.744Z,59.80
2022-08-16T15:20:29.527Z,59.70
2022-08-16T15:22:59.709Z,59.30
2022-08-16T15:25:31.786Z,59.00
2022-08-16T15:28:02.478Z,59.40
2022-08-16T15:30:59.782Z,59.30
2022-08-16T15:33:25.355Z,59.30
2022-08-16T15:35:55.310Z,58.50
2022-08-16T15:38:57.353Z,59.10
2022-08-16T15:41:33.879Z,59.30
2022-08-16T15:44:10.440Z,58.90
2022-08-16T15:46:54.893Z,58.70
2022-08-16T15:49:32.108Z,57.40
2022-08-16T15:52:32.953Z,59.50
2022-08-16T15:55:23.885Z,59.90
2022-08-16T15:57:57.330Z,59.90
2022-08-16T16:00:26.734Z,59.30
2022-08-16T16:03:21.717Z,58.40
2022-08-16T16:05:53.183Z,59.90
2022-08-16T16:08:23.926Z,60.10
2022-08-16T16:10:56.986Z,60.30
2022-08-16T16:13:24.135Z,60.50
2022-08-16T16:15:54.623Z,60.30
2022-08-16T16:18:24.633Z,61.10
2022-08-16T16:21:00.088Z,60.50
2022-08-16T16:23:30.988Z,60.00
2022-08-16T16:25:58.999Z,60.60
2022-08-16T16:29:07.633Z,60.40
2022-08-16T16:31:17.438Z,61.10
2022-08-16T16:33:47.866Z,61.10
2022-08-16T16:36:19.475Z,60.90
2022-08-16T16:38:47.615Z,60.90
2022-08-16T16:41:20.468Z,61.10
2022-08-16T16:43:50.516Z,60.50
2022-08-16T16:46:40.741Z,61.10
2022-08-16T16:49:14.025Z,61.60
2022-08-16T16:51:44.538Z,61.10
2022-08-16T16:54:22.466Z,60.80
2022-08-16T16:56:55.622Z,59.90
2022-08-16T16:59:25.565Z,61.40
2022-08-16T17:01:59.584Z,62.10
2022-08-16T17:04:43.155Z,61.60
2022-08-16T17:07:12.110Z,61.60
2022-08-16T17:09:41.116Z,61.60
2022-08-16T17:12:12.195Z,61.80
2022-08-16T17:14:51.678Z,61.40
2022-08-16T17:17:18.505Z,61.80
2022-08-16T17:19:45.404Z,62.00
2022-08-16T17:22:15.549Z,62.70
2022-08-16T17:24:50.722Z,63.00
2022-08-16T17:27:32.899Z,62.60
2022-08-16T17:30:16.926Z,62.80
2022-08-16T17:32:55.444Z,63.30
2022-08-16T17:35:34.367Z,63.60
2022-08-16T17:38:08.615Z,63.50
2022-08-16T17:40:47.945Z,63.80
2022-08-16T17:43:25.904Z,62.70
2022-08-16T17:45:52.839Z,63.10
2022-08-16T17:48:19.887Z,63.60
2022-08-16T17:50:47.238Z,64.70
2022-08-16T17:53:16.390Z,65.30
2022-08-16T17:55:47.341Z,65.10
2022-08-16T17:58:22.242Z,66.30
2022-08-16T18:00:55.913Z,66.20
2022-08-16T18:04:09.048Z,66.60
2022-08-16T18:06:16.665Z,67.80
2022-08-16T18:08:44.280Z,67.40
2022-08-16T18:11:13.253Z,67.80
2022-08-16T18:13:43.051Z,68.30
2022-08-16T18:16:11.837Z,68.50
2022-08-16T18:18:38.677Z,68.40
2022-08-16T18:21:23.970Z,68.30
2022-08-16T18:23:50.893Z,68.20
2022-08-16T18:26:18.139Z,69.70
2022-08-16T18:28:44.982Z,69.10
2022-08-16T18:31:11.884Z,69.10
2022-08-16T18:33:43.671Z,69.10
2022-08-16T18:36:20.130Z,69.30
2022-08-16T18:38:49.362Z,69.60
2022-08-16T18:41:17.011Z,69.40
2022-08-16T18:44:22.813Z,69.20
2022-08-16T18:46:30.986Z,68.80
2022-08-16T18:48:57.821Z,69.40
2022-08-16T18:51:25.773Z,69.60
2022-08-16T18:53:53.481Z,69.80
2022-08-16T18:56:20.309Z,69.80
2022-08-16T18:58:47.130Z,69.90
2022-08-16T19:01:14.085Z,69.90
2022-08-16T19:03:41.025Z,70.10
2022-08-16T19:06:13.767Z,70.10
2022-08-16T19:08:43.567Z,70.10
2022-08-16T19:11:15.174Z,70.10
2022-08-16T19:13:45.343Z,70.20
2022-08-16T19:16:13.674Z,70.50
2022-08-16T19:18:40.960Z,70.50
2022-08-16T19:21:09.937Z,70.60
2022-08-16T19:23:42.806Z,70.70
2022-08-16T19:26:24.693Z,70.40
2022-08-16T19:28:59.607Z,70.50
2022-08-16T19:31:30.211Z,70.30
2022-08-16T19:33:57.776Z,70.10
2022-08-16T19:36:30.470Z,69.70
2022-08-16T19:39:05.127Z,70.80
2022-08-16T19:41:34.624Z,70.00
2022-08-16T19:44:01.646Z,70.00
2022-08-16T19:46:28.448Z,69.80
2022-08-16T19:48:55.307Z,69.90
2022-08-16T19:51:22.094Z,70.10
2022-08-16T19:53:48.979Z,70.20
2022-08-16T19:56:15.777Z,70.00
2022-08-16T19:59:02.087Z,70.20
2022-08-16T20:01:29.554Z,70.50
2022-08-16T20:03:56.453Z,70.70
2022-08-16T20:06:35.779Z,70.80
2022-08-16T20:09:06.485Z,71.00
2022-08-16T20:11:34.663Z,70.40
2022-08-16T20:14:02.247Z,70.00
2022-08-16T20:16:29.273Z,69.60
2022-08-16T20:18:56.086Z,69.60
2022-08-16T20:21:22.909Z,69.50
2022-08-16T20:23:49.850Z,69.60
2022-08-16T20:26:18.421Z,69.40
2022-08-16T20:28:53.508Z,69.30
2022-08-16T20:31:23.658Z,69.00
2022-08-16T20:33:52.131Z,68.90
2022-08-16T20:36:18.924Z,69.40
2022-08-16T20:38:47.465Z,69.50
2022-08-16T20:41:18.815Z,69.60
2022-08-16T20:43:47.499Z,69.40
2022-08-16T20:46:14.735Z,69.20
2022-08-16T20:48:42.702Z,69.20
2022-08-16T20:51:10.840Z,69.00
2022-08-16T20:53:41.881Z,69.20
2022-08-16T20:56:09.920Z,68.80
2022-08-16T20:58:37.604Z,68.80
2022-08-16T21:01:06.010Z,68.90
2022-08-16T21:03:32.875Z,68.80
2022-08-16T21:06:02.182Z,68.80
2022-08-16T21:08:52.149Z,68.60
2022-08-16T21:11:16.681Z,68.80
2022-08-16T21:13:43.990Z,68.50
2022-08-16T21:16:10.936Z,68.60
2022-08-16T21:18:38.681Z,68.60
2022-08-16T21:21:05.514Z,68.50
2022-08-16T21:23:32.327Z,68.30
2022-08-16T21:25:59.895Z,68.10
2022-08-16T21:28:38.874Z,68.00
2022-08-16T21:31:15.203Z,67.90
2022-08-16T21:33:43.574Z,67.90
2022-08-16T21:36:11.938Z,68.20
2022-08-16T21:38:39.972Z,67.90
2022-08-16T21:41:09.079Z,67.80
2022-08-16T21:43:36.207Z,67.70
2022-08-16T21:46:04.660Z,67.70
2022-08-16T21:48:33.926Z,67.50
2022-08-16T21:51:03.957Z,67.70
2022-08-16T21:53:31.237Z,67.50
2022-08-16T21:55:59.768Z,67.70
2022-08-16T21:58:27.239Z,67.60
2022-08-16T22:00:54.660Z,68.00
2022-08-16T22:03:21.820Z,67.60
2022-08-16T22:06:11.816Z,67.90
2022-08-16T22:08:49.857Z,66.90
2022-08-16T22:11:24.091Z,67.00
2022-08-16T22:13:57.646Z,67.50
2022-08-16T22:16:29.398Z,67.90
2022-08-16T22:18:56.495Z,67.60
2022-08-16T22:21:23.778Z,67.40
2022-08-16T22:23:56.604Z,68.10
2022-08-16T22:26:31.729Z,66.90
2022-08-16T22:29:08.613Z,67.20
2022-08-16T22:31:37.245Z,67.90
2022-08-16T22:34:04.803Z,67.40
2022-08-16T22:36:33.738Z,66.90
2022-08-16T22:39:04.813Z,66.90
2022-08-16T22:41:33.968Z,66.80
2022-08-16T22:44:03.408Z,66.80
2022-08-16T22:46:30.885Z,66.70
2022-08-16T22:48:57.998Z,66.90
2022-08-16T22:51:26.796Z,67.00
2022-08-16T22:53:54.761Z,67.20
2022-08-16T22:56:22.990Z,67.40
2022-08-16T22:58:50.196Z,67.50
2022-08-16T23:01:19.074Z,67.80
2022-08-16T23:03:46.593Z,67.80
2022-08-16T23:06:14.209Z,67.90
2022-08-16T23:08:42.085Z,68.10
2022-08-16T23:11:12.209Z,68.10
2022-08-16T23:13:49.698Z,68.50
2022-08-16T23:16:28.745Z,68.50
2022-08-16T23:19:03.395Z,68.60
2022-08-16T23:21:31.187Z,68.60
2022-08-16T23:23:58.368Z,68.60
2022-08-16T23:26:44.590Z,68.70
2022-08-16T23:29:21.188Z,69.00
2022-08-16T23:31:50.743Z,68.90
2022-08-16T23:34:21.284Z,69.00
2022-08-16T23:36:48.360Z,69.00
2022-08-16T23:39:17.756Z,69.10
2022-08-16T23:41:44.724Z,69.10
2022-08-16T23:44:44.174Z,69.40
2022-08-16T23:46:59.079Z,69.30
2022-08-16T23:49:57.675Z,69.30
2022-08-16T23:52:13.203Z,69.50
2022-08-16T23:54:40.188Z,69.50
2022-08-16T23:57:08.096Z,69.50
2022-08-16T23:59:41.974Z,69.40
